createdAt,value
2022-08-04T00:01:27.926Z,68.53
2022-08-04T00:04:42.269Z,68.40
2022-08-04T00:07:52.816Z,68.53
2022-08-04T00:10:58.696Z,68.51
2022-08-04T00:14:09.952Z,68.54
2022-08-04T00:17:14.630Z,68.58
2022-08-04T00:20:19.858Z,68.71
2022-08-04T00:23:24.781Z,68.84
2022-08-04T00:26:28.104Z,68.92
2022-08-04T00:29:31.244Z,68.89
2022-08-04T00:32:34.913Z,69.00
2022-08-04T00:35:39.766Z,69.15
2022-08-04T00:38:43.895Z,69.21
2022-08-04T00:42:05.043Z,69.30
2022-08-04T00:45:26.453Z,69.35
2022-08-04T00:48:43.118Z,69.31
2022-08-04T00:52:31.614Z,69.24
2022-08-04T00:55:39.147Z,69.41
2022-08-04T00:58:48.107Z,69.40
2022-08-04T01:02:08.727Z,69.58
2022-08-04T01:05:37.947Z,69.69
2022-08-04T01:08:59.147Z,69.61
2022-08-04T01:12:26.291Z,69.60
2022-08-04T01:16:00.431Z,69.59
2022-08-04T01:19:20.754Z,69.64
2022-08-04T01:22:32.734Z,69.67
2022-08-04T01:26:44.065Z,69.70
2022-08-04T01:29:50.311Z,69.63
2022-08-04T01:33:05.025Z,69.69
2022-08-04T01:36:10.049Z,69.71
2022-08-04T01:39:33.137Z,69.66
2022-08-04T01:42:37.601Z,69.64
2022-08-04T01:45:41.843Z,69.66
2022-08-04T01:48:46.789Z,69.69
2022-08-04T01:51:52.328Z,69.70
2022-08-04T01:54:55.718Z,69.74
2022-08-04T01:58:03.675Z,69.84
2022-08-04T02:01:13.163Z,69.87
2022-08-04T02:04:23.339Z,69.94
2022-08-04T02:07:40.368Z,70.02
2022-08-04T02:10:43.489Z,70.07
2022-08-04T02:13:49.115Z,70.17
2022-08-04T02:16:52.921Z,70.26
2022-08-04T02:20:05.004Z,70.38
2022-08-04T02:23:14.329Z,70.44
2022-08-04T02:26:22.528Z,70.37
2022-08-04T02:29:58.627Z,70.32
2022-08-04T02:33:07.565Z,70.20
2022-08-04T02:36:16.747Z,70.15
2022-08-04T02:39:21.772Z,70.06
2022-08-04T02:42:24.824Z,70.09
2022-08-04T02:45:30.641Z,70.11
2022-08-04T02:48:34.896Z,70.15
2022-08-04T02:51:41.930Z,70.22
2022-08-04T02:54:45.714Z,70.30
2022-08-04T02:57:50.750Z,70.33
2022-08-04T03:00:53.736Z,70.38
2022-08-04T03:04:25.448Z,70.34
2022-08-04T03:07:58.778Z,70.34
2022-08-04T03:11:30.093Z,70.42
2022-08-04T03:14:54.781Z,70.45
2022-08-04T03:18:06.902Z,70.51
2022-08-04T03:21:36.865Z,70.58
2022-08-04T03:24:58.439Z,70.74
2022-08-04T03:28:32.326Z,70.81
2022-08-04T03:31:59.153Z,70.80
2022-08-04T03:35:22.685Z,70.87
2022-08-04T03:39:00.226Z,71.04
2022-08-04T03:42:34.150Z,71.14
2022-08-04T03:46:06.003Z,71.14
2022-08-04T03:49:42.727Z,71.29
2022-08-04T03:53:24.567Z,71.30
2022-08-04T03:57:20.611Z,71.45
2022-08-04T04:00:34.632Z,71.50
2022-08-04T04:04:14.938Z,71.53
2022-08-04T04:07:20.540Z,71.53
2022-08-04T04:11:12.637Z,71.62
2022-08-04T04:14:23.042Z,71.74
2022-08-04T04:17:34.743Z,71.81
2022-08-04T04:20:56.177Z,72.03
2022-08-04T04:24:33.607Z,72.02
2022-08-04T04:28:45.656Z,72.10
2022-08-04T04:32:10.769Z,72.18
2022-08-04T04:35:49.237Z,72.18
2022-08-04T04:39:13.506Z,72.30
2022-08-04T04:42:39.702Z,72.59
2022-08-04T04:46:30.253Z,72.52
2022-08-04T04:49:48.721Z,72.67
2022-08-04T04:53:03.104Z,72.88
2022-08-04T04:56:14.781Z,72.90
2022-08-04T04:59:22.648Z,72.88
2022-08-04T05:02:50.240Z,72.88
2022-08-04T05:06:15.207Z,73.05
2022-08-04T05:09:32.128Z,73.31
2022-08-04T05:14:31.307Z,73.51
2022-08-04T05:16:27.219Z,73.62
2022-08-04T05:19:51.452Z,73.85
2022-08-04T05:22:59.866Z,73.88
2022-08-04T05:26:13.567Z,74.24
2022-08-04T05:29:31.957Z,74.44
2022-08-04T05:32:45.180Z,74.81
2022-08-04T05:36:17.147Z,75.06
2022-08-04T05:39:22.617Z,75.38
2022-08-04T05:42:27.428Z,75.95
2022-08-04T05:45:39.229Z,75.98
2022-08-04T05:48:44.443Z,76.32
2022-08-04T05:51:49.247Z,76.25
2022-08-04T05:54:53.100Z,75.90
2022-08-04T05:57:59.071Z,74.57
2022-08-04T06:01:03.038Z,73.79
2022-08-04T06:04:11.156Z,73.93
2022-08-04T06:07:14.744Z,74.05
2022-08-04T06:10:17.872Z,73.12
2022-08-04T06:13:46.774Z,72.09
2022-08-04T06:16:55.222Z,71.77
2022-08-04T06:20:19.610Z,71.07
2022-08-04T06:23:29.131Z,70.69
2022-08-04T06:26:37.260Z,69.98
2022-08-04T06:29:51.302Z,69.48
2022-08-04T06:33:03.562Z,69.85
2022-08-04T06:36:08.599Z,69.34
2022-08-04T06:39:12.187Z,69.41
2022-08-04T06:42:21.873Z,69.30
2022-08-04T06:45:27.321Z,68.59
2022-08-04T06:48:33.827Z,68.56
2022-08-04T06:51:45.239Z,68.13
2022-08-04T06:54:53.564Z,67.41
2022-08-04T06:58:02.499Z,67.15
2022-08-04T07:01:07.117Z,67.17
2022-08-04T07:04:11.148Z,66.51
2022-08-04T07:07:15.101Z,64.81
2022-08-04T07:10:22.331Z,65.46
2022-08-04T07:13:27.622Z,64.77
2022-08-04T07:16:32.141Z,64.30
2022-08-04T07:19:38.711Z,63.66
2022-08-04T07:22:43.682Z,63.67
2022-08-04T07:25:59.911Z,62.58
2022-08-04T07:29:15.149Z,62.07
2022-08-04T07:32:23.144Z,62.13
2022-08-04T07:36:05.694Z,61.55
2022-08-04T07:38:52.224Z,59.94
2022-08-04T07:41:57.310Z,60.95
2022-08-04T07:45:00.544Z,60.93
2022-08-04T07:48:07.338Z,59.87
2022-08-04T07:51:11.370Z,58.79
2022-08-04T07:54:15.376Z,59.83
2022-08-04T07:57:40.205Z,57.98
2022-08-04T08:00:47.061Z,58.08
2022-08-04T08:03:52.271Z,56.11
2022-08-04T08:06:58.003Z,56.59
2022-08-04T08:10:01.443Z,54.41
2022-08-04T08:13:05.081Z,54.87
2022-08-04T08:16:08.223Z,54.63
2022-08-04T08:19:12.423Z,54.16
2022-08-04T08:22:15.757Z,53.90
2022-08-04T08:25:19.429Z,54.07
2022-08-04T08:28:24.968Z,52.88
2022-08-04T08:31:55.633Z,52.81
2022-08-04T08:34:51.222Z,52.28
2022-08-04T08:38:02.996Z,51.21
2022-08-04T08:41:31.068Z,51.17
2022-08-04T08:45:08.142Z,52.10
2022-08-04T08:48:36.510Z,51.94
2022-08-04T08:51:49.861Z,51.05
2022-08-04T08:55:14.028Z,50.23
2022-08-04T08:58:38.753Z,50.30
2022-08-04T09:02:14.387Z,50.33
2022-08-04T09:05:36.960Z,49.34
2022-08-04T09:09:00.096Z,49.05
2022-08-04T09:12:25.642Z,48.99
2022-08-04T09:15:41.793Z,48.53
2022-08-04T09:18:56.702Z,47.20
2022-08-04T09:22:12.794Z,47.67
2022-08-04T09:25:26.430Z,46.06
2022-08-04T09:28:53.482Z,47.21
2022-08-04T09:32:29.087Z,45.22
2022-08-04T09:36:11.299Z,44.56
2022-08-04T09:39:26.411Z,44.16
2022-08-04T09:42:51.123Z,45.01
2022-08-04T09:46:17.031Z,45.28
2022-08-04T09:49:28.483Z,42.88
2022-08-04T09:53:00.236Z,43.94
2022-08-04T09:56:28.875Z,43.06
2022-08-04T09:59:41.063Z,43.62
2022-08-04T10:02:56.756Z,42.37
2022-08-04T10:06:21.459Z,41.99
2022-08-04T10:10:01.985Z,43.18
2022-08-04T10:13:23.649Z,42.85
2022-08-04T10:16:40.358Z,41.69
2022-08-04T10:19:43.340Z,42.08
2022-08-04T10:23:23.925Z,41.21
2022-08-04T10:26:45.600Z,41.13
2022-08-04T10:29:48.999Z,41.01
2022-08-04T10:33:21.350Z,40.81
2022-08-04T10:36:31.095Z,39.73
2022-08-04T10:40:07.779Z,40.66
2022-08-04T10:43:23.083Z,40.16
2022-08-04T10:46:31.507Z,39.59
2022-08-04T10:49:40.787Z,41.02
2022-08-04T10:53:15.453Z,40.53
2022-08-04T10:56:30.183Z,40.37
2022-08-04T10:59:47.797Z,39.81
2022-08-04T11:03:15.935Z,39.77
2022-08-04T11:06:19.613Z,39.63
2022-08-04T11:09:25.872Z,38.74
2022-08-04T11:12:29.964Z,39.19
2022-08-04T11:15:49.231Z,38.70
2022-08-04T11:19:23.368Z,38.52
2022-08-04T11:23:01.173Z,39.16
2022-08-04T11:26:19.650Z,38.25
2022-08-04T11:29:42.348Z,37.98
2022-08-04T11:33:09.104Z,39.99
2022-08-04T11:36:32.324Z,39.39
2022-08-04T11:39:45.102Z,39.01
2022-08-04T11:43:02.493Z,38.81
2022-08-04T11:46:13.864Z,38.79
2022-08-04T11:49:57.217Z,38.44
2022-08-04T11:52:58.337Z,39.68
2022-08-04T11:56:09.389Z,38.78
2022-08-04T11:59:13.320Z,39.80
2022-08-04T12:02:28.622Z,40.76
2022-08-04T12:05:41.691Z,39.70
2022-08-04T12:08:53.794Z,38.55
2022-08-04T12:12:15.674Z,38.45
2022-08-04T12:16:01.390Z,38.09
2022-08-04T12:19:21.099Z,39.25
2022-08-04T12:22:30.601Z,38.73
2022-08-04T12:25:44.724Z,38.74
2022-08-04T12:29:09.697Z,39.47
2022-08-04T12:32:22.371Z,39.40
2022-08-04T12:35:35.418Z,40.49
2022-08-04T12:38:47.595Z,39.34
2022-08-04T12:42:08.759Z,40.00
2022-08-04T12:45:14.235Z,39.83
2022-08-04T12:48:21.624Z,38.53
2022-08-04T12:52:06.617Z,39.43
2022-08-04T12:54:54.377Z,38.46
2022-08-04T12:58:03.326Z,39.45
2022-08-04T13:02:10.205Z,39.02
2022-08-04T13:04:42.465Z,39.30
2022-08-04T13:07:51.012Z,39.71
2022-08-04T13:11:00.285Z,39.32
2022-08-04T13:14:25.651Z,41.96
2022-08-04T13:18:02.055Z,40.79
2022-08-04T13:21:50.099Z,40.88
2022-08-04T13:24:56.901Z,40.14
2022-08-04T13:28:22.704Z,41.06
2022-08-04T13:31:35.808Z,41.80
2022-08-04T13:34:49.068Z,41.65
2022-08-04T13:37:57.492Z,41.51
2022-08-04T13:41:04.734Z,41.03
2022-08-04T13:44:19.412Z,42.53
2022-08-04T13:47:28.214Z,42.49
2022-08-04T13:50:33.521Z,42.78
2022-08-04T13:53:38.833Z,42.82
2022-08-04T13:56:49.493Z,42.85
2022-08-04T13:59:57.815Z,41.82
2022-08-04T14:03:23.645Z,41.31
2022-08-04T14:06:34.916Z,42.02
2022-08-04T14:09:39.660Z,41.42
2022-08-04T14:12:50.421Z,40.58
2022-08-04T14:16:02.829Z,40.40
2022-08-04T14:19:07.551Z,41.40
2022-08-04T14:22:27.629Z,40.92
2022-08-04T14:25:35.708Z,41.45
2022-08-04T14:29:09.615Z,40.41
2022-08-04T14:32:12.937Z,41.04
2022-08-04T14:35:17.838Z,40.29
2022-08-04T14:38:20.919Z,41.66
2022-08-04T14:41:29.505Z,41.59
2022-08-04T14:44:32.689Z,41.96
2022-08-04T14:47:52.031Z,42.21
2022-08-04T14:50:56.272Z,41.30
2022-08-04T14:53:59.224Z,42.71
2022-08-04T14:57:06.888Z,42.84
2022-08-04T15:00:13.569Z,42.51
2022-08-04T15:03:21.925Z,42.38
2022-08-04T15:06:27.375Z,42.13
2022-08-04T15:09:31.552Z,42.29
2022-08-04T15:12:34.523Z,42.92
2022-08-04T15:15:39.534Z,43.66
2022-08-04T15:18:42.589Z,42.42
2022-08-04T15:21:45.707Z,43.04
2022-08-04T15:24:52.157Z,43.16
2022-08-04T15:28:00.639Z,42.78
2022-08-04T15:31:10.652Z,44.11
2022-08-04T15:34:46.292Z,44.23
2022-08-04T15:37:58.340Z,43.42
2022-08-04T15:41:10.516Z,43.36
2022-08-04T15:44:43.791Z,43.11
2022-08-04T15:48:13.038Z,43.89
2022-08-04T15:51:32.091Z,43.80
2022-08-04T15:54:37.961Z,44.00
2022-08-04T15:57:59.933Z,43.83
2022-08-04T16:01:02.841Z,44.13
2022-08-04T16:04:22.757Z,45.00
2022-08-04T16:07:57.217Z,44.90
2022-08-04T16:11:00.141Z,45.07
2022-08-04T16:14:03.019Z,45.26
2022-08-04T16:17:16.604Z,45.80
2022-08-04T16:20:20.515Z,46.10
2022-08-04T16:23:54.256Z,46.85
2022-08-04T16:27:00.929Z,46.47
2022-08-04T16:30:13.939Z,47.53
2022-08-04T16:33:17.406Z,47.33
2022-08-04T16:36:58.410Z,47.59
2022-08-04T16:40:38.547Z,46.39
2022-08-04T16:43:41.944Z,45.97
2022-08-04T16:47:21.535Z,45.94
2022-08-04T16:50:08.052Z,46.23
2022-08-04T16:53:14.691Z,46.57
2022-08-04T16:56:36.212Z,46.76
2022-08-04T16:59:51.897Z,46.98
2022-08-04T17:02:55.246Z,47.85
2022-08-04T17:06:17.680Z,48.03
2022-08-04T17:09:23.314Z,48.00
2022-08-04T17:12:29.136Z,47.17
2022-08-04T17:15:32.092Z,47.16
2022-08-04T17:18:37.895Z,47.17
2022-08-04T17:21:40.781Z,47.67
2022-08-04T17:24:43.654Z,47.63
2022-08-04T17:28:18.417Z,47.81
2022-08-04T17:31:10.949Z,47.93
2022-08-04T17:34:19.475Z,47.84
2022-08-04T17:37:39.704Z,48.31
2022-08-04T17:40:57.262Z,48.52
2022-08-04T17:44:06.862Z,48.27
2022-08-04T17:47:19.568Z,48.61
2022-08-04T17:50:28.618Z,48.52
2022-08-04T17:53:52.867Z,48.69
2022-08-04T17:56:59.642Z,48.58
2022-08-04T18:00:02.808Z,48.80
2022-08-04T18:03:29.144Z,49.41
2022-08-04T18:06:33.124Z,49.24
2022-08-04T18:10:02.080Z,49.31
2022-08-04T18:13:14.312Z,49.96
2022-08-04T18:16:22.590Z,49.82
2022-08-04T18:19:26.144Z,49.82
2022-08-04T18:22:34.470Z,50.08
2022-08-04T18:25:51.537Z,50.56
2022-08-04T18:28:55.177Z,50.24
2022-08-04T18:31:58.306Z,50.63
2022-08-04T18:35:07.055Z,50.77
2022-08-04T18:38:22.142Z,50.84
2022-08-04T18:42:02.439Z,51.24
2022-08-04T18:44:55.194Z,51.30
2022-08-04T18:48:01.293Z,51.39
2022-08-04T18:51:23.223Z,51.77
2022-08-04T18:54:27.681Z,52.00
2022-08-04T18:57:59.337Z,51.92
2022-08-04T19:00:55.856Z,51.93
2022-08-04T19:03:59.019Z,52.14
2022-08-04T19:07:26.581Z,52.23
2022-08-04T19:10:26.754Z,52.37
2022-08-04T19:13:34.792Z,52.68
2022-08-04T19:16:38.288Z,52.58
2022-08-04T19:19:47.549Z,52.56
2022-08-04T19:24:29.359Z,52.88
2022-08-04T19:26:20.717Z,52.75
2022-08-04T19:29:37.783Z,52.67
2022-08-04T19:32:41.218Z,52.92
2022-08-04T19:35:50.730Z,53.28
2022-08-04T19:38:54.877Z,53.23
2022-08-04T19:42:06.142Z,53.29
2022-08-04T19:45:15.436Z,53.43
2022-08-04T19:48:20.115Z,53.55
2022-08-04T19:51:23.301Z,53.69
2022-08-04T19:54:30.828Z,53.89
2022-08-04T19:57:36.165Z,53.87
2022-08-04T20:00:44.686Z,54.12
2022-08-04T20:04:08.268Z,54.13
2022-08-04T20:07:14.649Z,54.26
2022-08-04T20:10:23.899Z,54.43
2022-08-04T20:13:30.974Z,54.56
2022-08-04T20:16:40.967Z,54.79
2022-08-04T20:19:51.233Z,54.89
2022-08-04T20:22:54.672Z,54.87
2022-08-04T20:25:57.571Z,55.00
2022-08-04T20:29:00.512Z,55.35
2022-08-04T20:32:10.543Z,55.36
2022-08-04T20:35:26.769Z,55.44
2022-08-04T20:38:33.080Z,55.50
2022-08-04T20:41:38.746Z,55.57
2022-08-04T20:44:49.752Z,55.58
2022-08-04T20:47:54.179Z,55.72
2022-08-04T20:50:57.549Z,55.95
2022-08-04T20:54:02.478Z,55.98
2022-08-04T20:57:08.975Z,56.05
2022-08-04T21:00:13.392Z,56.21
2022-08-04T21:03:16.750Z,56.16
2022-08-04T21:06:20.920Z,56.26
2022-08-04T21:09:38.623Z,56.59
2022-08-04T21:12:49.687Z,56.53
2022-08-04T21:15:59.234Z,56.89
2022-08-04T21:19:05.585Z,56.98
2022-08-04T21:25:42.971Z,57.17
2022-08-04T21:28:47.218Z,57.13
2022-08-04T21:31:53.430Z,56.99
2022-08-04T21:35:06.056Z,57.09
2022-08-04T21:38:17.179Z,57.46
2022-08-04T21:41:24.858Z,57.43
2022-08-04T21:44:30.400Z,57.51
2022-08-04T21:47:45.830Z,57.76
2022-08-04T21:50:50.483Z,57.76
2022-08-04T21:53:53.885Z,57.73
2022-08-04T21:56:57.762Z,58.15
2022-08-04T22:00:00.769Z,58.15
2022-08-04T22:03:18.655Z,58.01
2022-08-04T22:06:33.826Z,57.99
2022-08-04T22:09:38.548Z,57.80
2022-08-04T22:12:44.588Z,57.76
2022-08-04T22:16:03.608Z,57.89
2022-08-04T22:19:10.872Z,58.13
2022-08-04T22:22:25.289Z,58.27
2022-08-04T22:25:30.852Z,58.49
2022-08-04T22:28:34.394Z,58.62
2022-08-04T22:31:56.140Z,58.46
2022-08-04T22:35:03.024Z,58.31
2022-08-04T22:38:28.879Z,58.32
2022-08-04T22:41:48.854Z,58.31
2022-08-04T22:45:03.281Z,58.37
2022-08-04T22:48:10.791Z,58.52
2022-08-04T22:51:13.923Z,58.37
2022-08-04T22:54:17.362Z,58.36
2022-08-04T22:57:20.255Z,58.44
2022-08-04T23:00:43.162Z,58.26
2022-08-04T23:03:55.282Z,58.23
2022-08-04T23:07:00.070Z,58.46
2022-08-04T23:10:04.725Z,58.24
2022-08-04T23:13:10.909Z,58.58
2022-08-04T23:16:14.595Z,58.39
2022-08-04T23:19:17.609Z,58.69
2022-08-04T23:22:37.419Z,58.73
2022-08-04T23:26:08.475Z,58.47
2022-08-04T23:29:08.724Z,58.44
2022-08-04T23:32:11.579Z,58.08
2022-08-04T23:35:16.197Z,58.00
2022-08-04T23:38:30.563Z,57.87
2022-08-04T23:41:55.182Z,57.89
2022-08-04T23:44:58.331Z,57.78
2022-08-04T23:48:18.244Z,57.63
2022-08-04T23:51:22.566Z,57.36
2022-08-04T23:54:26.133Z,57.74
2022-08-04T23:57:31.151Z,57.81
